Flight Track Log - Related Links

Times and Time Zones

All times are in EDT time to prevent confusion due to time zone crossing. See the N9786F flight status page for this flight to view local times or setup timezone preferences in your user account.

Time Position Orientation Groundspeed Altitude Reporting Facility
EDT Latitude Longitude Course Direction KTS MPH feet Rate Location/Type
Sun 11:08:17 AM 30.7711 -83.2747 159° South 91 105 400  Level Jacksonville Center
Sun 11:09:11 AM 30.7483 -83.2647 159° South 96 110 1,100 678 Climbing Jacksonville Center
Sun 11:10:12 AM 30.7503 -83.2914 275° West 107 123 1,700 541 Climbing Jacksonville Center
Sun 11:11:13 AM 30.7711 -83.3156 315° West 110 127 2,200 545 Climbing Jacksonville Center
Sun 11:12:13 AM 30.7961 -83.3400 320° Northwest 113 130 2,800 545 Climbing Jacksonville Center
Sun 11:13:14 AM 30.8211 -83.3619 323° Northwest 114 131 3,300 545 Climbing Jacksonville Center
Sun 11:14:14 AM 30.8439 -83.3886 315° West 111 128 3,900 595 Climbing Jacksonville Center
Sun 11:15:15 AM 30.8625 -83.4128 312° West 110 127 4,500 621 Climbing Jacksonville Center
Sun 11:16:10 AM 30.8814 -83.4419 307° West 111 128 5,100 626 Climbing Jacksonville Center
Sun 11:17:10 AM 30.9000 -83.4689 309° West 110 127 5,700 545 Climbing Jacksonville Center
Sun 11:18:11 AM 30.9208 -83.4956 312° West 109 125 6,200 496 Climbing Jacksonville Center
Sun 11:19:11 AM 30.9394 -83.5222 309° West 110 127 6,700 545 Climbing Jacksonville Center
Sun 11:20:12 AM 30.9622 -83.5514 312° West 112 129 7,300 541 Climbing Jacksonville Center
Sun 11:21:13 AM 30.9808 -83.5758 312° West 115 132 7,800 347 Climbing Jacksonville Center
Sun 11:22:13 AM 31.0058 -83.6100 310° West 128 147 8,000 99 Climbing Jacksonville Center
Sun 11:23:14 AM 31.0328 -83.6467 311° West 151 174 8,000  Level Jacksonville Center
Sun 11:24:36 AM 31.0719 -83.6953 313° West 165 190 8,000 -42 Level Jacksonville Center
Sun 11:25:36 AM 31.1031 -83.7319 315° West 165 190 7,900  Descending Jacksonville Center
Sun 11:26:36 AM 31.1300 -83.7711 309° West 160 184 8,000  Climbing Jacksonville Center
Sun 11:27:36 AM 31.1589 -83.8078 313° West 160 184 7,900  Descending Jacksonville Center
Sun 11:28:36 AM 31.1878 -83.8469 311° West 160 184 8,000 50 Climbing Jacksonville Center
Sun 11:29:36 AM 31.2189 -83.8836 315° West 160 184 8,000 -50 Level Jacksonville Center
Sun 11:30:36 AM 31.2478 -83.9253 309° West 160 184 7,900 -50 Descending Jacksonville Center
Sun 11:31:36 AM 31.2789 -83.9622 315° West 160 184 7,900  Level Jacksonville Center
Sun 11:32:36 AM 31.3078 -83.9989 313° West 160 184 7,900  Level Jacksonville Center
Sun 11:33:36 AM 31.3367 -84.0383 311° West 160 184 7,900 50 Level Jacksonville Center
Sun 11:34:36 AM 31.3656 -84.0725 315° West 160 184 8,000  Climbing Jacksonville Center
Sun 11:35:36 AM 31.3944 -84.1119 311° West 160 184 7,900  Descending Jacksonville Center
Sun 11:36:36 AM 31.4233 -84.1464 315° West 160 184 8,000 50 Climbing Jacksonville Center
Sun 11:37:36 AM 31.4522 -84.1833 313° West 160 184 8,000  Level Jacksonville Center
Sun 11:38:36 AM 31.4811 -84.2203 313° West 160 184 8,000  Level Jacksonville Center
Sun 11:39:36 AM 31.5097 -84.2597 310° West 160 184 8,000  Level Jacksonville Center
Sun 11:40:36 AM 31.5386 -84.2942 315° West 160 184 8,000 -50 Level Jacksonville Center
Sun 11:41:36 AM 31.5675 -84.3336 311° West 160 184 7,900 -50 Descending Jacksonville Center
Sun 11:42:36 AM 31.5900 -84.3756 302° West 160 184 7,900 50 Level Jacksonville Center
Sun 11:43:36 AM 31.6103 -84.4197 298° West 155 178 8,000  Climbing Jacksonville Center
Sun 11:44:36 AM 31.6328 -84.4664 300° West 155 178 7,900 -50 Descending Jacksonville Center
Sun 11:45:36 AM 31.6531 -84.5083 300° West 155 178 7,900  Level Jacksonville Center
Sun 11:47:44 AM 31.7000 -84.6000 301° West 155 178 7,900  Level Atlanta TRACON
Sun 11:48:44 AM 31.7167 -84.6500 291° West 155 178 7,900  Level Atlanta TRACON
Sun 11:49:44 AM 31.7333 -84.6833 300° West 152 175 7,900 50 Level Atlanta TRACON
Sun 11:50:44 AM 31.7667 -84.7333 308° West 151 174 8,000  Climbing Atlanta TRACON
Sun 11:51:44 AM 31.7833 -84.7833 291° West 154 177 7,900 -53 Descending Atlanta TRACON
Sun 11:52:38 AM 31.8000 -84.8167 300° West 155 178 7,900 50 Level Atlanta TRACON
Sun 11:53:44 AM 31.8167 -84.8667 291° West 150 173 8,000 50 Climbing Atlanta TRACON
Sun 11:54:38 AM 31.8333 -84.9000 300° West 155 178 8,000 -53 Level Atlanta TRACON
Sun 11:55:38 AM 31.8667 -84.9500 308° West 156 180 7,900 -100 Descending Atlanta TRACON
Sun 11:56:38 AM 31.8833 -84.9833 300° West 157 181 7,800 50 Descending Atlanta TRACON
Sun 11:57:39 AM 31.9167 -85.0333 308° West 152 175 8,000 100 Climbing Atlanta TRACON
Sun 11:58:38 AM 31.9333 -85.0833 291° West 154 177 8,000 -50 Level Atlanta TRACON
Sun 11:59:38 AM 31.9500 -85.1167 301° West 157 181 7,900 -50 Descending Atlanta TRACON
Sun 12:00:38 PM 31.9833 -85.1500 320° Northwest 159 183 7,900  Level Atlanta TRACON
Sun 12:01:32 PM 32.0167 -85.1833 320° Northwest 153 176 7,900 53 Level Atlanta TRACON
Sun 12:02:32 PM 32.0333 -85.2167 301° West 152 175 8,000 50 Climbing Atlanta TRACON
Sun 12:03:32 PM 32.0833 -85.2333 344° North 161 185 8,000 -50 Level Atlanta TRACON
Sun 12:04:32 PM 32.1333 -85.2500 344° North 163 188 7,900 -50 Descending Atlanta TRACON
Sun 12:05:32 PM 32.1667 -85.2500 360° North 163 188 7,900  Level Atlanta TRACON
Sun 12:06:32 PM 32.2000 -85.2833 320° Northwest 159 183 7,900  Level Atlanta TRACON
Sun 12:07:26 PM 32.2333 -85.3167 320° Northwest 158 182 7,900 52 Level Atlanta TRACON
Sun 12:08:27 PM 32.2667 -85.3333 337° Northwest 162 186 8,000  Climbing Atlanta TRACON
Sun 12:09:32 PM 32.3167 -85.3667 331° Northwest 159 183 7,900 -50 Descending Atlanta TRACON
Sun 12:10:27 PM 32.3500 -85.3833 337° Northwest 161 185 7,900  Level Atlanta TRACON
Sun 12:11:26 PM 32.4000 -85.4167 331° Northwest 159 183 7,900  Level Atlanta TRACON
Sun 12:12:27 PM 32.4333 -85.4167 360° North 162 186 7,900  Level Atlanta TRACON
Sun 12:13:26 PM 32.4833 -85.4333 344° North 166 191 7,900 53 Level Atlanta TRACON
Sun 12:14:21 PM 32.5167 -85.4500 337° Northwest 162 186 8,000 52 Climbing Atlanta TRACON
Sun 12:15:21 PM 32.5500 -85.4667 337° Northwest 162 186 8,000 -50 Level Atlanta TRACON
Sun 12:16:21 PM 32.6000 -85.5000 331° Northwest 161 185 7,900  Descending Atlanta TRACON
Sun 12:17:21 PM 32.6333 -85.5167 337° Northwest 156 180 8,000 50 Climbing Atlanta TRACON
Sun 12:18:21 PM 32.6833 -85.5333 344° North 159 183 8,000  Level Atlanta TRACON
Sun 12:19:15 PM 32.7167 -85.5667 320° Northwest 159 183 8,000  Level Atlanta TRACON
Sun 12:20:15 PM 32.7500 -85.5833 337° Northwest 160 184 8,000 -50 Level Atlanta TRACON
Sun 12:21:15 PM 32.7833 -85.6167 320° Northwest 160 184 7,900 -49 Descending Atlanta TRACON
Sun 12:22:18 PM 32.8278 -85.6383 338° Northwest 159 183 7,900  Level Atlanta Center
Sun 12:23:18 PM 32.8672 -85.6586 337° Northwest 159 183 7,900 50 Level Atlanta Center
Sun 12:24:18 PM 32.9044 -85.6817 333° Northwest 154 177 8,000 50 Climbing Atlanta Center
Sun 12:25:18 PM 32.9419 -85.7047 333° Northwest 154 177 8,000  Level Atlanta Center
Sun 12:26:18 PM 32.9811 -85.7328 329° Northwest 154 177 8,000  Level Atlanta Center
Sun 12:27:18 PM 33.0225 -85.7583 333° Northwest 154 177 8,000  Level Atlanta Center
Sun 12:28:18 PM 33.0597 -85.7811 333° Northwest 154 177 8,000  Level Atlanta Center
Sun 12:29:18 PM 33.0992 -85.8069 331° Northwest 154 177 8,000  Level Atlanta Center
Sun 12:30:18 PM 33.1383 -85.8275 336° Northwest 154 177 8,000  Level Atlanta Center
Sun 12:31:18 PM 33.1756 -85.8506 333° Northwest 154 177 8,000  Level Atlanta Center
Sun 12:32:18 PM 33.2150 -85.8761 332° Northwest 154 177 8,000  Level Atlanta Center
Sun 12:33:18 PM 33.2542 -85.9044 329° Northwest 154 177 8,000  Level Atlanta Center
Sun 12:34:18 PM 33.2914 -85.9275 333° Northwest 154 177 8,000  Level Atlanta Center
Sun 12:35:18 PM 33.3286 -85.9508 332° Northwest 154 177 8,000  Level Atlanta Center
Sun 12:36:18 PM 33.3678 -85.9764 331° Northwest 154 177 8,000  Level Atlanta Center
Sun 12:37:18 PM 33.4072 -85.9972 336° Northwest 154 177 8,000  Level Atlanta Center
Sun 12:38:18 PM 33.4444 -86.0231 330° Northwest 154 177 8,000  Level Atlanta Center
Sun 12:39:18 PM 33.4814 -86.0511 328° Northwest 154 177 8,000  Level Atlanta Center
Sun 12:40:18 PM 33.5208 -86.0719 336° Northwest 159 183 8,000 -50 Level Atlanta Center
Sun 12:41:18 PM 33.5600 -86.1006 329° Northwest 159 183 7,900 -50 Descending Atlanta Center
Sun 12:42:18 PM 33.6056 -86.1264 335° Northwest 166 191 7,900  Level Atlanta Center
Sun 12:43:18 PM 33.6467 -86.1525 332° Northwest 161 185 7,900 50 Level Atlanta Center
Sun 12:44:18 PM 33.6839 -86.1808 328° Northwest 161 185 8,000  Climbing Atlanta Center
Sun 12:45:18 PM 33.7272 -86.2044 336° Northwest 161 185 7,900 -50 Descending Atlanta Center
Sun 12:46:18 PM 33.7664 -86.2278 334° Northwest 161 185 7,900  Level Atlanta Center
Sun 12:47:18 PM 33.8056 -86.2539 331° Northwest 161 185 7,900  Level Atlanta Center
Sun 12:48:18 PM 33.8469 -86.2775 335° Northwest 161 185 7,900  Level Atlanta Center
Sun 12:49:18 PM 33.8903 -86.3011 336° Northwest 161 185 7,900  Level Atlanta Center
Sun 12:50:18 PM 33.9275 -86.3294 328° Northwest 161 185 7,900  Level Atlanta Center
Sun 12:51:18 PM 33.9686 -86.3533 334° Northwest 161 185 7,900  Level Atlanta Center
Sun 12:52:18 PM 34.0078 -86.3794 331° Northwest 161 185 7,900  Level Atlanta Center
Sun 12:54:00 PM 34.0692 -86.4179 333° Northwest  Level FlightAware Approximate
Sun 01:01:00 PM 34.3239 -86.5682 332° Northwest  Level FlightAware Approximate
Sun 01:02:00 PM 34.3600 -86.5911 332° Northwest  Level FlightAware Approximate
Sun 01:03:00 PM 34.3960 -86.6141 332° Northwest  Level FlightAware Approximate
Sun 01:04:00 PM 34.4321 -86.6370 332° Northwest  Level FlightAware Approximate
Sun 01:05:00 PM 34.4682 -86.6600 332° Northwest  Level FlightAware Approximate
Sun 01:06:00 PM 34.5042 -86.6829 332° Northwest  Level FlightAware Approximate
Sun 01:07:00 PM 34.5403 -86.7059 332° Northwest  Level FlightAware Approximate
Sun 01:08:00 PM 34.5764 -86.7289 332° Northwest  Level FlightAware Approximate

Login

Don't have an account? Register now (free) for customized features, flight alerts, and more!